14 sierpnia 2022

Czas Kod Pogoda Temp. Widoczność Sufit Wiatr METAR/SPECI
02:00
V
21 °C 8 km - 290° 290° 6 kt METAR LFBC 140000Z AUTO 29006KT 220V010 8000 TS ////// 21/20 Q1011
01:30
I
21 °C 8 km 900 ft Var Var 3 kt METAR LFBC 132330Z AUTO VRB03KT 8000 -TSRA BKN009/// BKN013/// OVC100/// ///CB 21/19 Q1011
01:00
M
21 °C 6 km 6.800 ft 020° 020° 5 kt METAR LFBC 132300Z AUTO 02005KT 340V070 6000 TSRA FEW011/// SCT037/// BKN068/// //////CB 21/19 Q1010
00:30
V
21 °C 10 km+ 12.000 ft 330° 330° 8 kt METAR LFBC 132230Z AUTO 33008KT 300V360 9999 -TSRA FEW019/// BKN120/// OVC140/// //////CB 21/19 Q1011
00:00
M
21 °C 10 km+ 1.800 ft 290° 290° 8 kt METAR LFBC 132200Z AUTO 29008KT 9999 -RA VCTS BKN018/// BKN100/// OVC130/// //////CB 21/19 Q1011

13 sierpnia 2022

Czas Kod Pogoda Temp. Widoczność Sufit Wiatr METAR/SPECI
23:30
V
22 °C 10 km+ 12.000 ft 270° 270° 8 kt METAR LFBC 132130Z AUTO 27008KT 220V320 9999 VCTS SCT016/// BKN120/// BKN150/// //////CB 22/19 Q1012
23:00
V
22 °C 10 km+ 12.000 ft 270° 270° 6 kt METAR LFBC 132100Z AUTO 27006KT 230V310 9999 FEW019/// SCT100/// BKN120/// //////CB 22/19 Q1011
22:30
V
22 °C 10 km+ 11.000 ft 270° 270° 6 kt METAR LFBC 132030Z AUTO 27006KT 230V320 9999 TS FEW016/// OVC110/// //////CB 22/19 Q1010
22:00
V
22 °C 10 km+ - 010° 010° 8 kt METAR LFBC 132000Z AUTO 01008KT 9999 ///CB 22/19 Q1009
21:30
V
22 °C 10 km+ - 310° 310° 5 kt METAR LFBC 131930Z AUTO 31005KT 250V350 9999 TS //////CB 22/19 Q1010
21:00
V
23 °C 10 km+ 13.000 ft 250° 250° 10 kt METAR LFBC 131900Z AUTO 25010KT 9999 VCTS FEW016/// BKN130/// //////CB 23/19 Q1011
20:30
V
23 °C 10 km+ - 280° 280° 8 kt METAR LFBC 131830Z AUTO 28008KT 220V320 CAVOK 23/19 Q1010
20:00
V
23 °C 10 km+ - 290° 290° 9 kt METAR LFBC 131800Z AUTO 29009KT 270V330 CAVOK 23/19 Q1010
19:30
V
24 °C 10 km+ - 290° 290° 10 kt METAR LFBC 131730Z AUTO 29010KT CAVOK 24/19 Q1010
19:00
V
24 °C 10 km+ - 300° 300° 8 kt METAR LFBC 131700Z AUTO 30008KT 270V330 CAVOK 24/19 Q1010
18:30
V
26 °C 10 km+ - 300° 300° 8 kt METAR LFBC 131630Z AUTO 30008KT 270V330 CAVOK 26/19 Q1009
18:00
V
27 °C 10 km+ - 300° 300° 7 kt METAR LFBC 131600Z AUTO 30007KT 270V340 CAVOK 27/18 Q1009
17:30
V
28 °C 10 km+ - 280° 280° 8 kt METAR LFBC 131530Z AUTO 28008KT 250V320 CAVOK 28/19 Q1010
17:00
V
27 °C 10 km+ - 270° 270° 9 kt METAR LFBC 131500Z AUTO 27009KT 250V310 CAVOK 27/19 Q1010
16:30
V
28 °C 10 km+ - 270° 270° 9 kt METAR LFBC 131430Z AUTO 27009KT 220V310 CAVOK 28/19 Q1011
16:00
V
29 °C 10 km+ - 260° 260° 5 kt METAR LFBC 131400Z AUTO 26005KT 190V330 CAVOK 29/19 Q1010
15:30
V
28 °C 10 km+ - 240° 240° 8 kt METAR LFBC 131330Z AUTO 24008KT CAVOK 28/19 Q1011
15:00
V
28 °C 10 km+ - 240° 240° 8 kt METAR LFBC 131300Z AUTO 24008KT 200V280 CAVOK 28/19 Q1011
14:30
V
27 °C 10 km+ - 220° 220° 7 kt METAR LFBC 131230Z AUTO 22007KT 190V260 CAVOK 27/19 Q1011
14:00
V
27 °C 10 km+ - 230° 230° 8 kt METAR LFBC 131200Z AUTO 23008KT 200V270 CAVOK 27/19 Q1011
13:30
V
27 °C 10 km+ - 220° 220° 9 kt METAR LFBC 131130Z AUTO 22009KT 180V260 CAVOK 27/19 Q1012
13:00
V
27 °C 10 km+ - 220° 220° 8 kt METAR LFBC 131100Z AUTO 22008KT 180V260 CAVOK 27/19 Q1012
12:30
V
26 °C 10 km+ - 210° 210° 7 kt METAR LFBC 131030Z AUTO 21007KT 170V260 CAVOK 26/19 Q1012
12:00
M
25 °C 10 km+ 2.200 ft 210° 210° 6 kt METAR LFBC 131000Z AUTO 21006KT 170V250 9999 BKN022 25/19 Q1012
11:30
V
26 °C 10 km+ - 210° 210° 6 kt METAR LFBC 130930Z AUTO 21006KT 180V270 9999 FEW024 26/19 Q1012
11:00
M
25 °C 10 km+ 2.200 ft 240° 240° 8 kt METAR LFBC 130900Z AUTO 24008KT 210V270 9999 BKN022 25/19 Q1012
10:30
M
25 °C 10 km+ 2.000 ft 240° 240° 8 kt METAR LFBC 130830Z AUTO 24008KT 200V260 9999 BKN020 25/19 Q1012
10:00
M
24 °C 10 km+ 1.900 ft 240° 240° 7 kt METAR LFBC 130800Z AUTO 24007KT 210V280 9999 OVC019 24/19 Q1012
09:30
M
24 °C 10 km+ 1.600 ft 240° 240° 6 kt METAR LFBC 130730Z AUTO 24006KT 210V280 9999 BKN016 24/19 Q1012
09:00
M
23 °C 10 km+ 1.600 ft 240° 240° 7 kt METAR LFBC 130700Z AUTO 24007KT 9999 OVC016 23/19 Q1012
08:30
M
23 °C 10 km+ 1.700 ft 240° 240° 6 kt METAR LFBC 130630Z AUTO 24006KT 9999 OVC017 23/19 Q1012
08:00
M
22 °C 10 km+ 1.800 ft 230° 230° 7 kt METAR LFBC 130600Z AUTO 23007KT 9999 BKN018 22/19 Q1012
07:30
M
22 °C 10 km+ 1.700 ft 240° 240° 7 kt METAR LFBC 130530Z AUTO 24007KT 210V280 9999 OVC017 22/19 Q1012
07:00
M
22 °C 10 km+ 1.600 ft 240° 240° 5 kt METAR LFBC 130500Z AUTO 24005KT 210V270 9999 OVC016 22/19 Q1012
06:30
M
22 °C 10 km+ 1.500 ft 240° 240° 5 kt METAR LFBC 130430Z AUTO 24005KT 210V300 9999 OVC015 22/19 Q1012
06:00
M
22 °C 10 km+ 1.600 ft 240° 240° 5 kt METAR LFBC 130400Z AUTO 24005KT 210V270 9999 OVC016 22/19 Q1012
05:30
M
22 °C 10 km+ 1.400 ft 250° 250° 6 kt METAR LFBC 130330Z AUTO 25006KT 220V280 9999 OVC014 22/19 Q1012
05:00
M
22 °C 10 km+ 1.400 ft 250° 250° 5 kt METAR LFBC 130300Z AUTO 25005KT 220V280 9999 OVC014 22/19 Q1012
04:30
M
22 °C 10 km+ 1.300 ft 240° 240° 7 kt METAR LFBC 130230Z AUTO 24007KT 9999 OVC013 22/19 Q1012
04:00
M
22 °C 10 km+ 1.200 ft 260° 260° 6 kt METAR LFBC 130200Z AUTO 26006KT 220V290 9999 OVC012 22/20 Q1012
03:30
M
22 °C 10 km+ 1.100 ft 250° 250° 6 kt METAR LFBC 130130Z AUTO 25006KT 220V290 9999 OVC011 22/20 Q1013
03:00
M
22 °C 10 km+ 1.200 ft 250° 250° 7 kt METAR LFBC 130100Z AUTO 25007KT 210V280 9999 OVC012 22/20 Q1013
02:30
M
22 °C 10 km+ 1.100 ft 250° 250° 6 kt METAR LFBC 130030Z AUTO 25006KT 220V300 9999 OVC011 22/20 Q1013
02:00
M
22 °C 10 km+ 1.100 ft 260° 260° 5 kt METAR LFBC 130000Z AUTO 26005KT 230V290 9999 BKN011 22/20 Q1013
01:30
M
22 °C 10 km+ 1.100 ft 270° 270° 6 kt METAR LFBC 122330Z AUTO 27006KT 9999 OVC011 22/20 Q1013
01:00
M
22 °C 10 km+ 1.100 ft 270° 270° 7 kt METAR LFBC 122300Z AUTO 27007KT 230V300 9999 OVC011 22/20 Q1013
00:30
M
22 °C 10 km+ 1.100 ft 260° 260° 7 kt METAR LFBC 122230Z AUTO 26007KT 230V300 9999 OVC011 22/20 Q1013
00:00
M
22 °C 10 km+ 1.000 ft 270° 270° 7 kt METAR LFBC 122200Z AUTO 27007KT 240V310 9999 OVC010 22/20 Q1013

12 sierpnia 2022

Czas Kod Pogoda Temp. Widoczność Sufit Wiatr METAR/SPECI
23:30
M
23 °C 10 km+ 1.000 ft 270° 270° 8 kt METAR LFBC 122130Z AUTO 27008KT 230V290 9999 BKN010 OVC014 23/21 Q1013
23:00
I
23 °C 10 km+ 900 ft 260° 260° 8 kt METAR LFBC 122100Z AUTO 26008KT 230V290 9999 OVC009 23/21 Q1013
22:30
M
23 °C 10 km+ 1.000 ft 260° 260° 6 kt METAR LFBC 122030Z AUTO 26006KT 220V290 9999 BKN010 23/21 Q1013
22:00
I
23 °C 10 km+ 900 ft 260° 260° 9 kt METAR LFBC 122000Z AUTO 26009KT 9999 BKN009 23/21 Q1013
21:30
V
23 °C 10 km+ - 260° 260° 7 kt METAR LFBC 121930Z AUTO 26007KT 9999 SCT009 23/21 Q1012
21:00
V
24 °C 10 km+ - 270° 270° 7 kt METAR LFBC 121900Z AUTO 27007KT CAVOK 24/20 Q1012
20:30
V
25 °C 10 km+ - 290° 290° 8 kt METAR LFBC 121830Z AUTO 29008KT 260V330 CAVOK 25/19 Q1012
20:00
V
26 °C 10 km+ - 290° 290° 7 kt METAR LFBC 121800Z AUTO 29007KT 260V330 CAVOK 26/19 Q1012
19:30
V
27 °C 10 km+ - 300° 300° 7 kt METAR LFBC 121730Z AUTO 30007KT 270V330 CAVOK 27/19 Q1011
19:00
V
27 °C 10 km+ - 280° 280° 8 kt METAR LFBC 121700Z AUTO 28008KT 250V310 CAVOK 27/19 Q1011
18:30
V
28 °C 10 km+ - 270° 270° 9 kt METAR LFBC 121630Z AUTO 27009KT 230V300 CAVOK 28/19 Q1011
18:00
V
30 °C 10 km+ - 300° 300° 8 kt METAR LFBC 121600Z AUTO 30008KT 260V330 CAVOK 30/16 Q1011
17:30
V
31 °C 10 km+ - 280° 280° 8 kt METAR LFBC 121530Z AUTO 28008KT 240V320 CAVOK 31/15 Q1011
17:00
V
31 °C 10 km+ - 290° 290° 6 kt METAR LFBC 121500Z AUTO 29006KT 230V330 CAVOK 31/16 Q1012
16:30
V
31 °C 10 km+ - 290° 290° 6 kt METAR LFBC 121430Z AUTO 29006KT 250V330 CAVOK 31/18 Q1012
16:00
V
30 °C 10 km+ - 270° 270° 6 kt METAR LFBC 121400Z AUTO 27006KT 200V340 CAVOK 30/19 Q1012
15:30
V
29 °C 10 km+ - 270° 270° 8 kt METAR LFBC 121330Z AUTO 27008KT 230V340 CAVOK 29/19 Q1012 NOSIG
15:00
V
30 °C 10 km+ - 240° 240° 10 kt METAR LFBC 121300Z AUTO 24010KT 210V280 CAVOK 30/19 Q1013 NOSIG
14:30
V
30 °C 10 km+ - 290° 290° 8 kt METAR LFBC 121230Z AUTO 29008KT 240V320 CAVOK 30/18 Q1012 NOSIG
14:00
V
29 °C 10 km+ - 250° 250° 9 kt METAR LFBC 121200Z AUTO 25009KT 210V290 CAVOK 29/18 Q1013 NOSIG
13:30
V
29 °C 10 km+ - 250° 250° 10 kt METAR LFBC 121130Z AUTO 25010KT 200V290 CAVOK 29/19 Q1013 NOSIG
13:00
V
29 °C 10 km+ - 230° 230° 11 kt METAR LFBC 121100Z AUTO 23011KT 210V270 CAVOK 29/20 Q1013 NOSIG
12:30
V
29 °C 10 km+ - 250° 250° 9 kt METAR LFBC 121030Z AUTO 25009KT 210V300 CAVOK 29/20 Q1013 NOSIG
12:00
V
28 °C 10 km+ - 240° 240° 9 kt METAR LFBC 121000Z AUTO 24009KT 210V290 CAVOK 28/21 Q1013 NOSIG
11:30
V
28 °C 10 km+ - 240° 240° 10 kt METAR LFBC 120930Z AUTO 24010KT 200V280 CAVOK 28/21 Q1013 NOSIG
11:00
V
27 °C 10 km+ - 240° 240° 9 kt METAR LFBC 120900Z AUTO 24009KT 210V270 CAVOK 27/21 Q1013 NOSIG
10:30
V
27 °C 10 km+ - 240° 240° 9 kt METAR LFBC 120830Z AUTO 24009KT 200V270 CAVOK 27/20 Q1013 TEMPO FEW040TCU
10:00
V
26 °C 10 km+ - 230° 230° 9 kt METAR LFBC 120800Z AUTO 23009KT CAVOK 26/20 Q1013 TEMPO FEW040TCU
09:30
V
26 °C 10 km+ - 230° 230° 7 kt METAR LFBC 120730Z AUTO 23007KT CAVOK 26/20 Q1013 TEMPO FEW040TCU
09:00
V
26 °C 10 km+ - 220° 220° 7 kt METAR LFBC 120700Z AUTO 22007KT 200V260 CAVOK 26/20 Q1012 TEMPO FEW040TCU
08:30
V
25 °C 10 km+ - Var Var 2 kt METAR LFBC 120630Z AUTO VRB02KT CAVOK 25/18 Q1012 TEMPO FEW040TCU
08:00
V
24 °C 10 km+ - Var Var 3 kt METAR LFBC 120600Z AUTO VRB03KT CAVOK 24/18 Q1012
07:30
V
23 °C 10 km+ - 240° 240° 3 kt METAR LFBC 120530Z AUTO 24003KT 220V290 CAVOK 23/19 Q1012
07:00
V
22 °C 10 km+ - Var Var 2 kt METAR LFBC 120500Z AUTO VRB02KT CAVOK 22/19 Q1011
06:30
V
23 °C 10 km+ - 230° 230° 4 kt METAR LFBC 120430Z AUTO 23004KT CAVOK 23/19 Q1011
06:00
V
23 °C 10 km+ - 230° 230° 4 kt METAR LFBC 120400Z AUTO 23004KT CAVOK 23/19 Q1011
05:30
V
23 °C 10 km+ - 240° 240° 4 kt METAR LFBC 120330Z AUTO 24004KT CAVOK 23/19 Q1011
05:00
V
24 °C 10 km+ - 230° 230° 3 kt METAR LFBC 120300Z AUTO 23003KT CAVOK 24/20 Q1012
04:30
V
24 °C 9 km - 220° 220° 3 kt METAR LFBC 120230Z AUTO 22003KT 9000 NSC 24/18 Q1012
04:00
V
24 °C 8 km - Var Var 3 kt METAR LFBC 120200Z AUTO VRB03KT 8000 NSC 24/16 Q1012
03:30
V
24 °C 10 km+ - Var 000° 0 kt METAR LFBC 120130Z AUTO 00000KT CAVOK 24/13 Q1011
03:00
V
24 °C 10 km+ - Var 000° 0 kt METAR LFBC 120100Z AUTO 00000KT CAVOK 24/12 Q1011
02:30
V
25 °C 10 km+ - Var 000° 0 kt METAR LFBC 120030Z AUTO 00000KT CAVOK 25/12 Q1012
02:00
V
26 °C 9 km - 350° 350° 2 kt METAR LFBC 120000Z AUTO 35002KT 9000 NSC 26/11 Q1012
01:30
V
27 °C 10 km+ - 350° 350° 3 kt METAR LFBC 112330Z AUTO 35003KT CAVOK 27/12 Q1012
01:00
V
28 °C 9 km - 010° 010° 5 kt METAR LFBC 112300Z AUTO 01005KT 9000 NSC 28/12 Q1012
00:30
V
28 °C 9 km - 350° 350° 4 kt METAR LFBC 112230Z AUTO 35004KT 9000 NSC 28/12 Q1012
00:00
V
28 °C 8 km - 340° 340° 5 kt METAR LFBC 112200Z AUTO 34005KT 8000 NSC 28/12 Q1012

11 sierpnia 2022

Czas Kod Pogoda Temp. Widoczność Sufit Wiatr METAR/SPECI
23:30
M
28 °C 6 km - 350° 350° 5 kt METAR LFBC 112130Z AUTO 35005KT 6000 NSC 28/12 Q1012
23:00
I
29 °C 3,9 km - 340° 340° 4 kt METAR LFBC 112100Z AUTO 34004KT 3900 HZ NSC 29/12 Q1012
22:30
I
30 °C 3,5 km - 330° 330° 4 kt METAR LFBC 112030Z AUTO 33004KT 3500 HZ NSC 30/11 Q1012
22:00
I
31 °C 4,5 km - 330° 330° 5 kt METAR LFBC 112000Z AUTO 33005KT 4500 HZ NSC 31/11 Q1011
21:30
I
32 °C 4,7 km - 310° 310° 4 kt METAR LFBC 111930Z AUTO 31004KT 4700 HZ NSC 32/11 Q1011
21:00
I
32 °C 4,1 km - 330° 330° 4 kt METAR LFBC 111900Z AUTO 33004KT 4100 HZ NSC 32/10 Q1011
20:30
M
34 °C 5 km - 310° 310° 5 kt METAR LFBC 111830Z AUTO 31005KT 280V340 5000 HZ NSC 34/11 Q1011
20:00
M
36 °C 6 km - 360° 360° 6 kt METAR LFBC 111800Z AUTO 36006KT 6000 NSC 36/11 Q1010
19:30
M
37 °C 5 km - 340° 340° 5 kt METAR LFBC 111730Z AUTO 34005KT 300V010 5000 HZ NSC 37/11 Q1010
19:00
I
37 °C 3,9 km - 320° 320° 5 kt METAR LFBC 111700Z AUTO 32005KT 290V350 3900 HZ NSC 37/11 Q1010
18:30
M
37 °C 5 km - 310° 310° 5 kt METAR LFBC 111630Z AUTO 31005KT 280V340 5000 HZ NSC 37/11 Q1011
18:00
V
37 °C 8 km - 330° 330° 6 kt METAR LFBC 111600Z AUTO 33006KT 280V010 8000 NSC 37/12 Q1011
17:30
M
37 °C 6 km - 310° 310° 8 kt METAR LFBC 111530Z AUTO 31008KT 6000 NSC 37/12 Q1011
17:00
M
37 °C 7 km - 300° 300° 8 kt METAR LFBC 111500Z AUTO 30008KT 270V340 7000 NSC 37/13 Q1011 NOSIG
Starsze dane

My i osoby trzecie śledzimy twoje zachowanie w internecie na naszej stronie za pomocą plików cookie. Jeśli kontynuujesz, zakładamy, że zgadzasz się z naszą polityką plików cookie. Dowiedz się więcej